Time;durP1;ratioP1;P1;durP2;ratioP2;P2;SDS_P1;SDS_P2;PMS_P1;PMS_P2;Temp;Humidity;BMP_temperature;BMP_pressure;BME280_temperature;BME280_humidity;BME280_pressure;Samples;Min_cycle;Max_cycle;Signal;HPM_P1;HPM_P2
2021/12/24 00:01:54;;;;;;;19.20;10.82;;;;;;;;;;4967495;28;20192;-73
2021/12/24 00:04:22;;;;;;;16.92;9.93;;;;;;;;;;4988344;28;20053;-71
2021/12/24 00:06:49;;;;;;;14.88;9.35;;;;;;;;;;4987236;28;20487;-74
2021/12/24 00:09:22;;;;;;;17.23;10.15;;;;;;;;;;4984170;28;20049;-74
2021/12/24 00:11:50;;;;;;;16.85;10.05;;;;;;;;;;5000685;28;20054;-73
2021/12/24 00:14:16;;;;;;;13.27;8.90;;;;;;;;;;4969310;28;20072;-73
2021/12/24 00:16:47;;;;;;;19.13;9.85;;;;;;;;;;4970149;28;20053;-75
2021/12/24 00:19:38;;;;;;;13.68;9.50;;;;;;;;;;4997267;28;20061;-73
2021/12/24 00:35:45;;;;;;;14.82;9.38;;;;;;;;;;4987717;28;20457;-76
2021/12/24 00:38:12;;;;;;;15.80;9.80;;;;;;;;;;4986352;28;20068;-74
2021/12/24 00:40:41;;;;;;;21.13;9.45;;;;;;;;;;4999815;28;20703;-75
2021/12/24 00:43:07;;;;;;;14.60;9.13;;;;;;;;;;5001824;28;20641;-75
2021/12/24 00:45:39;;;;;;;18.23;9.38;;;;;;;;;;4968266;28;20049;-77
2021/12/24 00:48:08;;;;;;;16.27;9.40;;;;;;;;;;4985143;28;20759;-72
2021/12/24 00:50:50;;;;;;;15.55;9.50;;;;;;;;;;4999226;28;20057;-74
2021/12/24 00:55:59;;;;;;;14.45;9.10;;;;;;;;;;5006304;28;20054;-78
2021/12/24 00:58:25;;;;;;;18.33;9.93;;;;;;;;;;4987841;28;20060;-72
2021/12/24 01:00:52;;;;;;;16.75;9.27;;;;;;;;;;4982737;28;20069;-71
2021/12/24 01:03:18;;;;;;;16.75;9.88;;;;;;;;;;4980362;28;20279;-75
2021/12/24 01:05:45;;;;;;;20.05;10.73;;;;;;;;;;4981271;28;20466;-74
2021/12/24 01:08:13;;;;;;;17.23;9.70;;;;;;;;;;4982097;28;20057;-72
2021/12/24 01:10:52;;;;;;;18.40;10.13;;;;;;;;;;4998211;28;20108;-74
2021/12/24 01:13:19;;;;;;;20.10;9.85;;;;;;;;;;4980742;28;20584;-73
2021/12/24 01:15:58;;;;;;;20.65;10.43;;;;;;;;;;5000174;28;20061;-74
2021/12/24 01:23:55;;;;;;;16.63;9.57;;;;;;;;;;4972228;28;20076;-74
2021/12/24 01:26:33;;;;;;;15.48;9.82;;;;;;;;;;4986080;28;20145;-73
2021/12/24 01:42:48;;;;;;;15.75;8.82;;;;;;;;;;4914548;28;20552;-77
2021/12/24 01:45:23;;;;;;;15.30;9.38;;;;;;;;;;4918654;29;20062;-74
2021/12/24 01:47:53;;;;;;;20.38;10.32;;;;;;;;;;4905298;28;20418;-73
2021/12/24 01:50:21;;;;;;;23.13;10.05;;;;;;;;;;4919325;28;20051;-74
2021/12/24 01:52:50;;;;;;;22.77;10.27;;;;;;;;;;4920510;28;20429;-71
2021/12/24 01:55:18;;;;;;;17.52;10.07;;;;;;;;;;4923748;29;20068;-73
2021/12/24 01:57:44;;;;;;;16.30;10.15;;;;;;;;;;4932995;28;20143;-76
2021/12/24 02:00:15;;;;;;;14.38;9.93;;;;;;;;;;4908238;29;20043;-78
2021/12/24 02:02:42;;;;;;;19.35;10.15;;;;;;;;;;4884441;28;20055;-75
2021/12/24 02:05:09;;;;;;;17.92;9.95;;;;;;;;;;4930929;29;20055;-76
2021/12/24 02:07:36;;;;;;;16.42;9.88;;;;;;;;;;4927095;28;20052;-75
2021/12/24 02:10:08;;;;;;;18.10;10.20;;;;;;;;;;4921496;28;20048;-73
2021/12/24 02:12:35;;;;;;;19.83;10.70;;;;;;;;;;4976643;28;20291;-76
2021/12/24 02:15:10;;;;;;;17.70;10.05;;;;;;;;;;5005597;28;20053;-76
2021/12/24 02:28:41;;;;;;;16.65;9.57;;;;;;;;;;4999150;28;20141;-75
2021/12/24 02:31:16;;;;;;;14.60;8.98;;;;;;;;;;4978130;28;20458;-74
2021/12/24 02:33:42;;;;;;;16.33;9.20;;;;;;;;;;4963539;28;20061;-74
2021/12/24 02:36:08;;;;;;;19.67;9.88;;;;;;;;;;4984580;28;20111;-75
2021/12/24 02:38:35;;;;;;;17.25;10.00;;;;;;;;;;5000518;28;20176;-72
2021/12/24 02:41:03;;;;;;;19.90;10.18;;;;;;;;;;4997144;28;20651;-75
2021/12/24 02:43:30;;;;;;;16.38;9.45;;;;;;;;;;4995964;28;20609;-74
2021/12/24 02:46:05;;;;;;;16.15;9.02;;;;;;;;;;5000517;28;20045;-75
2021/12/24 02:54:02;;;;;;;19.17;9.00;;;;;;;;;;5000745;28;20052;-72
2021/12/24 02:56:32;;;;;;;18.08;9.93;;;;;;;;;;4965776;28;20135;-76
2021/12/24 02:59:06;;;;;;;23.23;10.27;;;;;;;;;;4981602;28;20128;-75
2021/12/24 03:01:38;;;;;;;16.35;9.73;;;;;;;;;;4981226;28;20172;-73
2021/12/24 03:04:06;;;;;;;17.42;10.18;;;;;;;;;;5002509;28;20179;-71
2021/12/24 03:06:40;;;;;;;18.35;9.82;;;;;;;;;;5001441;28;20052;-74
2021/12/24 03:09:10;;;;;;;18.55;9.77;;;;;;;;;;4964704;28;20061;-73
2021/12/24 03:11:36;;;;;;;16.10;9.40;;;;;;;;;;4980040;28;20431;-74
2021/12/24 03:14:08;;;;;;;18.77;10.23;;;;;;;;;;4969864;28;20064;-76
2021/12/24 03:16:35;;;;;;;18.02;9.93;;;;;;;;;;4986905;28;20490;-75
2021/12/24 03:19:01;;;;;;;15.60;8.93;;;;;;;;;;4983209;28;20053;-75
2021/12/24 03:22:15;;;;;;;18.88;9.57;;;;;;;;;;4965693;28;20081;-76
2021/12/24 03:26:46;;;;;;;17.85;9.45;;;;;;;;;;5001640;28;20052;-72
2021/12/24 03:29:15;;;;;;;16.02;9.75;;;;;;;;;;4984462;28;20710;-72
2021/12/24 03:31:41;;;;;;;19.95;10.00;;;;;;;;;;4998605;28;20049;-75
2021/12/24 03:34:10;;;;;;;18.40;9.20;;;;;;;;;;4992755;28;20085;-77
2021/12/24 03:36:36;;;;;;;17.65;10.25;;;;;;;;;;5004377;28;20047;-76
2021/12/24 03:39:04;;;;;;;17.98;9.38;;;;;;;;;;4970073;28;20061;-76
2021/12/24 03:41:31;;;;;;;14.77;8.23;;;;;;;;;;4997191;28;20123;-76
2021/12/24 03:43:58;;;;;;;21.33;9.60;;;;;;;;;;5003093;28;22353;-75
2021/12/24 03:46:35;;;;;;;16.23;10.05;;;;;;;;;;4967112;28;20619;-75
2021/12/24 03:49:07;;;;;;;15.63;9.15;;;;;;;;;;5000518;28;20726;-73
2021/12/24 03:56:48;;;;;;;;;;;;;;;;;;5000997;28;20064;-74
2021/12/24 03:59:15;;;;;;;19.60;8.98;;;;;;;;;;5001165;28;19925;-73
2021/12/24 04:01:42;;;;;;;18.23;9.23;;;;;;;;;;4998533;28;20732;-76
2021/12/24 04:04:09;;;;;;;14.57;8.68;;;;;;;;;;4969380;28;20395;-74
2021/12/24 04:06:35;;;;;;;19.67;8.65;;;;;;;;;;5003152;28;20048;-71
2021/12/24 04:09:05;;;;;;;19.45;9.30;;;;;;;;;;5001678;28;20060;-78
2021/12/24 04:11:34;;;;;;;18.52;8.43;;;;;;;;;;4982535;28;21147;-71
2021/12/24 04:14:01;;;;;;;15.15;8.35;;;;;;;;;;5003064;28;20138;-73
2021/12/24 04:16:28;;;;;;;17.92;8.93;;;;;;;;;;4985199;28;20053;-75
2021/12/24 04:19:16;;;;;;;17.10;8.82;;;;;;;;;;4983707;28;20419;-72
2021/12/24 04:25:12;;;;;;;;;;;;;;;;;;5005541;28;20049;-72
2021/12/24 04:27:13;;;;;;;19.17;8.88;;;;;;;;;;4977300;28;19926;-74
2021/12/24 04:29:39;;;;;;;17.27;8.85;;;;;;;;;;4981963;28;20049;-75
2021/12/24 04:32:17;;;;;;;17.65;8.43;;;;;;;;;;4998989;28;20053;-75
2021/12/24 04:34:46;;;;;;;14.70;9.18;;;;;;;;;;4985443;28;20132;-70
2021/12/24 04:51:31;;;;;;;;;;;;;;;;;;5000278;28;20095;-74
2021/12/24 05:02:27;;;;;;;17.45;9.35;;;;;;;;;;4995996;28;20065;-76
2021/12/24 05:05:07;;;;;;;15.80;9.18;;;;;;;;;;5003232;28;20244;-71
2021/12/24 05:08:05;;;;;;;15.82;8.95;;;;;;;;;;4983630;28;20099;-74
2021/12/24 05:10:28;;;;;;;17.05;9.02;;;;;;;;;;4981934;28;20064;-72
2021/12/24 05:12:55;;;;;;;17.98;9.40;;;;;;;;;;4998313;28;20115;-74
2021/12/24 05:15:22;;;;;;;15.25;9.07;;;;;;;;;;5003042;28;20053;-75
2021/12/24 05:23:25;;;;;;;17.45;9.60;;;;;;;;;;4998469;28;21191;-74
2021/12/24 05:25:52;;;;;;;16.35;9.48;;;;;;;;;;4990593;28;20045;-73
2021/12/24 05:28:19;;;;;;;14.88;10.38;;;;;;;;;;4969650;28;20053;-73
2021/12/24 05:30:46;;;;;;;17.77;9.77;;;;;;;;;;5000303;28;20111;-76
2021/12/24 05:33:15;;;;;;;16.33;9.32;;;;;;;;;;5000483;28;20325;-72
2021/12/24 05:35:41;;;;;;;18.38;9.25;;;;;;;;;;4983968;28;20978;-73
2021/12/24 05:38:08;;;;;;;19.83;9.95;;;;;;;;;;5004709;28;20084;-74
2021/12/24 05:40:34;;;;;;;25.85;9.80;;;;;;;;;;4984203;28;20096;-77
2021/12/24 05:43:01;;;;;;;14.32;9.68;;;;;;;;;;4996656;28;20068;-74
2021/12/24 05:45:27;;;;;;;21.73;10.30;;;;;;;;;;4968358;28;20566;-72
2021/12/24 05:47:53;;;;;;;18.02;9.85;;;;;;;;;;4986135;28;20050;-75
2021/12/24 05:50:19;;;;;;;18.17;10.00;;;;;;;;;;4982050;28;20064;-71
2021/12/24 05:52:45;;;;;;;22.15;10.48;;;;;;;;;;4998483;28;20068;-75
2021/12/24 05:55:11;;;;;;;20.42;9.40;;;;;;;;;;4985329;28;20049;-72
2021/12/24 05:57:38;;;;;;;21.45;10.05;;;;;;;;;;5000130;28;20070;-74
2021/12/24 06:00:07;;;;;;;18.08;10.13;;;;;;;;;;4983776;28;20048;-72
2021/12/24 06:02:34;;;;;;;20.52;10.25;;;;;;;;;;5000520;28;20045;-72
2021/12/24 06:05:01;;;;;;;19.02;10.35;;;;;;;;;;5003123;28;20444;-76
2021/12/24 06:07:27;;;;;;;20.90;9.82;;;;;;;;;;5004461;28;20140;-71
2021/12/24 06:09:53;;;;;;;22.90;10.82;;;;;;;;;;4983657;28;20382;-71
2021/12/24 06:12:19;;;;;;;18.08;10.27;;;;;;;;;;4963776;28;20057;-72
2021/12/24 06:14:53;;;;;;;16.27;9.90;;;;;;;;;;5002077;28;20929;-68
2021/12/24 06:17:22;;;;;;;20.75;11.52;;;;;;;;;;4986899;28;20205;-75
2021/12/24 06:19:48;;;;;;;17.65;10.32;;;;;;;;;;5003869;28;20109;-70
2021/12/24 06:22:15;;;;;;;19.83;10.23;;;;;;;;;;5002325;28;20172;-74
2021/12/24 06:24:41;;;;;;;22.33;10.18;;;;;;;;;;4988478;28;20518;-73
2021/12/24 06:27:08;;;;;;;21.33;10.25;;;;;;;;;;4988691;28;20145;-67
2021/12/24 06:29:34;;;;;;;17.70;9.00;;;;;;;;;;4982712;28;20077;-78
2021/12/24 06:32:00;;;;;;;16.88;9.68;;;;;;;;;;4999307;28;20049;-74
2021/12/24 06:34:30;;;;;;;17.38;9.63;;;;;;;;;;5003964;28;20076;-74
2021/12/24 06:36:58;;;;;;;21.35;9.68;;;;;;;;;;4987613;28;21333;-71
2021/12/24 06:39:25;;;;;;;17.80;9.90;;;;;;;;;;5002850;28;20080;-71
2021/12/24 06:41:51;;;;;;;16.60;10.05;;;;;;;;;;4978397;28;20063;-69
2021/12/24 06:44:17;;;;;;;19.20;9.25;;;;;;;;;;4965841;28;20064;-70
2021/12/24 06:46:43;;;;;;;17.23;8.73;;;;;;;;;;4980117;28;20072;-72
2021/12/24 06:49:10;;;;;;;15.55;9.13;;;;;;;;;;5001524;28;20062;-74
2021/12/24 06:51:37;;;;;;;13.40;8.50;;;;;;;;;;4982480;28;20062;-76
2021/12/24 06:54:04;;;;;;;15.20;8.30;;;;;;;;;;4986211;28;20049;-73
2021/12/24 06:56:30;;;;;;;16.00;8.68;;;;;;;;;;4986907;28;20056;-72
2021/12/24 06:58:57;;;;;;;17.73;8.85;;;;;;;;;;5005403;28;20139;-71
2021/12/24 07:01:23;;;;;;;21.05;9.23;;;;;;;;;;4982580;28;20066;-73
2021/12/24 07:03:49;;;;;;;17.95;9.23;;;;;;;;;;4986358;28;20144;-75
2021/12/24 07:06:15;;;;;;;22.73;9.65;;;;;;;;;;5006386;28;20054;-72
2021/12/24 07:08:42;;;;;;;20.08;9.82;;;;;;;;;;5001701;28;20072;-79
2021/12/24 07:11:08;;;;;;;23.73;9.73;;;;;;;;;;5000211;28;20053;-76
2021/12/24 07:13:34;;;;;;;24.15;10.48;;;;;;;;;;4986022;28;20041;-74
2021/12/24 07:16:00;;;;;;;25.30;10.82;;;;;;;;;;5004935;28;20207;-74
2021/12/24 07:18:27;;;;;;;22.20;10.73;;;;;;;;;;4984782;28;20089;-73
2021/12/24 07:20:53;;;;;;;28.48;13.05;;;;;;;;;;5002297;28;20053;-74
2021/12/24 07:23:19;;;;;;;26.60;15.10;;;;;;;;;;4986303;28;20970;-71
2021/12/24 07:25:46;;;;;;;29.58;14.77;;;;;;;;;;5010098;28;20141;-69
2021/12/24 07:28:12;;;;;;;29.67;14.05;;;;;;;;;;5007489;28;20358;-71
2021/12/24 07:30:38;;;;;;;28.50;13.25;;;;;;;;;;5004089;28;20466;-75
2021/12/24 07:33:04;;;;;;;48.10;15.70;;;;;;;;;;4990634;28;20056;-78
2021/12/24 07:35:31;;;;;;;48.75;14.57;;;;;;;;;;4994478;28;20049;-72
2021/12/24 07:37:57;;;;;;;31.05;13.77;;;;;;;;;;4993596;28;20053;-72
2021/12/24 07:40:26;;;;;;;26.58;12.10;;;;;;;;;;5003087;28;20052;-74
2021/12/24 07:42:52;;;;;;;22.25;12.80;;;;;;;;;;4982019;28;20710;-71
2021/12/24 07:45:18;;;;;;;35.03;12.63;;;;;;;;;;5002038;28;20798;-70
2021/12/24 07:47:55;;;;;;;25.33;12.40;;;;;;;;;;4999345;28;20047;-74
2021/12/24 07:52:53;;;;;;;30.58;11.98;;;;;;;;;;5000073;28;20064;-76
2021/12/24 07:55:20;;;;;;;29.02;11.43;;;;;;;;;;5006781;28;20099;-73
2021/12/24 07:57:49;;;;;;;23.92;10.80;;;;;;;;;;4990735;28;20065;-68
2021/12/24 08:00:16;;;;;;;25.08;10.85;;;;;;;;;;4984838;28;20053;-74
2021/12/24 08:02:43;;;;;;;28.35;11.13;;;;;;;;;;4970910;28;20053;-67
2021/12/24 08:05:13;;;;;;;27.17;10.88;;;;;;;;;;4981982;28;20057;-74
2021/12/24 08:07:39;;;;;;;25.92;11.32;;;;;;;;;;5011310;28;20058;-69
2021/12/24 08:10:06;;;;;;;25.80;10.95;;;;;;;;;;5007253;28;20061;-75
2021/12/24 08:12:32;;;;;;;24.75;10.65;;;;;;;;;;4984395;28;20143;-78
2021/12/24 08:14:59;;;;;;;25.60;10.93;;;;;;;;;;4987939;28;20057;-72
2021/12/24 08:17:25;;;;;;;23.13;10.77;;;;;;;;;;5004242;28;20083;-73
2021/12/24 08:19:51;;;;;;;25.40;10.70;;;;;;;;;;5003456;28;20050;-74
2021/12/24 08:22:18;;;;;;;21.73;10.30;;;;;;;;;;5002044;28;20057;-70
2021/12/24 08:24:44;;;;;;;17.30;10.23;;;;;;;;;;5003597;28;20171;-75
2021/12/24 08:27:10;;;;;;;30.83;10.82;;;;;;;;;;5000508;28;20057;-74
2021/12/24 08:29:37;;;;;;;19.92;9.80;;;;;;;;;;4989146;28;20060;-73
2021/12/24 08:32:04;;;;;;;22.95;10.82;;;;;;;;;;5003507;28;20109;-76
2021/12/24 08:34:31;;;;;;;21.25;10.65;;;;;;;;;;4987132;28;20786;-74
2021/12/24 08:36:57;;;;;;;23.60;11.02;;;;;;;;;;4991209;28;20054;-72
2021/12/24 08:39:23;;;;;;;20.83;10.65;;;;;;;;;;4987449;28;20056;-72
2021/12/24 08:41:54;;;;;;;27.13;12.23;;;;;;;;;;5000580;28;20944;-73
2021/12/24 08:44:25;;;;;;;31.88;11.13;;;;;;;;;;5004394;28;21079;-70
2021/12/24 08:46:52;;;;;;;34.45;10.73;;;;;;;;;;4985204;28;20074;-73
2021/12/24 08:49:20;;;;;;;26.48;12.90;;;;;;;;;;5000825;28;20069;-73
2021/12/24 08:51:51;;;;;;;31.48;11.43;;;;;;;;;;4983224;28;20084;-72
2021/12/24 08:54:18;;;;;;;26.65;11.18;;;;;;;;;;4995351;28;20087;-75
2021/12/24 08:56:45;;;;;;;28.85;11.93;;;;;;;;;;4992329;28;20140;-73
2021/12/24 08:59:12;;;;;;;23.60;10.30;;;;;;;;;;5008760;28;20297;-76
2021/12/24 09:01:38;;;;;;;22.05;11.35;;;;;;;;;;4988099;28;20522;-70
2021/12/24 09:04:05;;;;;;;21.15;11.02;;;;;;;;;;4996159;28;20107;-77
2021/12/24 09:06:34;;;;;;;29.40;11.07;;;;;;;;;;4977183;28;21019;-75
2021/12/24 09:09:00;;;;;;;25.48;11.90;;;;;;;;;;5011433;28;20049;-81
2021/12/24 09:11:26;;;;;;;22.00;11.73;;;;;;;;;;5009365;28;20049;-72
2021/12/24 09:13:53;;;;;;;23.00;10.77;;;;;;;;;;4996089;28;20057;-72
2021/12/24 09:16:20;;;;;;;30.77;11.63;;;;;;;;;;5011194;28;20608;-74
2021/12/24 09:18:49;;;;;;;20.40;11.88;;;;;;;;;;5009289;28;20077;-69
2021/12/24 09:21:17;;;;;;;26.02;12.77;;;;;;;;;;4997732;28;20403;-78
2021/12/24 09:23:47;;;;;;;25.23;11.77;;;;;;;;;;5020464;28;20500;-75
2021/12/24 09:26:14;;;;;;;37.38;12.75;;;;;;;;;;5023170;28;20041;-73
2021/12/24 09:28:40;;;;;;;28.02;11.73;;;;;;;;;;5027477;28;20538;-69
2021/12/24 09:31:06;;;;;;;27.02;12.88;;;;;;;;;;5007100;28;20195;-70
2021/12/24 09:33:33;;;;;;;24.38;12.25;;;;;;;;;;5024912;28;20099;-75
2021/12/24 09:36:00;;;;;;;31.98;12.25;;;;;;;;;;5023886;28;20046;-78
2021/12/24 09:38:26;;;;;;;23.70;11.88;;;;;;;;;;5024129;28;20071;-73
2021/12/24 09:40:52;;;;;;;25.95;12.60;;;;;;;;;;5021188;28;20049;-68
2021/12/24 09:43:20;;;;;;;29.55;12.93;;;;;;;;;;4985951;28;20140;-68
2021/12/24 09:45:46;;;;;;;23.77;12.00;;;;;;;;;;5018064;28;20049;-70
2021/12/24 09:48:12;;;;;;;23.38;11.23;;;;;;;;;;5002912;28;20046;-75
2021/12/24 09:50:39;;;;;;;18.63;11.25;;;;;;;;;;4998381;28;20049;-76
2021/12/24 09:53:05;;;;;;;23.88;11.60;;;;;;;;;;5017221;28;20049;-72
2021/12/24 09:55:32;;;;;;;26.17;11.18;;;;;;;;;;5020966;28;20470;-72
2021/12/24 09:57:59;;;;;;;21.25;11.38;;;;;;;;;;5009310;28;20053;-73
2021/12/24 10:00:27;;;;;;;25.75;11.98;;;;;;;;;;5006099;28;20068;-76
2021/12/24 10:02:56;;;;;;;23.05;12.65;;;;;;;;;;5009580;28;20041;-83
2021/12/24 10:05:41;;;;;;;21.27;11.23;;;;;;;;;;5024995;28;20046;-70
2021/12/24 10:08:16;;;;;;;22.50;11.73;;;;;;;;;;5023766;28;20068;-75
2021/12/24 10:10:46;;;;;;;22.10;11.07;;;;;;;;;;5021383;28;20824;-69
2021/12/24 10:13:28;;;;;;;20.25;10.45;;;;;;;;;;5000689;28;20063;-69
2021/12/24 10:16:00;;;;;;;20.33;10.30;;;;;;;;;;5004197;28;20056;-72
2021/12/24 10:18:38;;;;;;;20.73;9.30;;;;;;;;;;5019334;28;20061;-70
2021/12/24 10:21:29;;;;;;;23.77;9.50;;;;;;;;;;5018059;28;20057;-78
2021/12/24 10:23:59;;;;;;;23.20;9.95;;;;;;;;;;4998854;28;20418;-71
2021/12/24 10:26:34;;;;;;;19.55;9.40;;;;;;;;;;4991532;28;20053;-80
2021/12/24 10:29:08;;;;;;;19.10;9.80;;;;;;;;;;4989730;28;20068;-77
2021/12/24 10:31:45;;;;;;;15.43;10.20;;;;;;;;;;4997709;28;20049;-73
2021/12/24 10:34:13;;;;;;;21.02;10.50;;;;;;;;;;5015161;28;20111;-74
2021/12/24 10:36:59;;;;;;;16.33;9.98;;;;;;;;;;4983141;28;20049;-75
2021/12/24 10:40:00;;;;;;;26.30;10.77;;;;;;;;;;4994435;28;20115;-72
2021/12/24 10:42:36;;;;;;;21.02;10.52;;;;;;;;;;5009643;28;20515;-71
2021/12/24 10:45:05;;;;;;;18.58;10.25;;;;;;;;;;5000697;28;20054;-79
2021/12/24 10:47:36;;;;;;;15.85;9.48;;;;;;;;;;5017139;28;20049;-77
2021/12/24 10:53:12;;;;;;;17.98;9.90;;;;;;;;;;5023631;28;20380;-71
2021/12/24 10:55:45;;;;;;;17.02;9.80;;;;;;;;;;5006827;28;20042;-73
2021/12/24 10:58:31;;;;;;;19.53;9.57;;;;;;;;;;5007744;28;20441;-78
2021/12/24 11:01:00;;;;;;;17.05;10.43;;;;;;;;;;4996111;28;20298;-69
2021/12/24 11:03:33;;;;;;;21.17;11.45;;;;;;;;;;5024216;28;20049;-77
2021/12/24 11:06:09;;;;;;;23.83;10.80;;;;;;;;;;4993950;28;21234;-69
2021/12/24 11:08:40;;;;;;;24.02;11.40;;;;;;;;;;5027947;28;20042;-74
2021/12/24 11:11:11;;;;;;;24.55;10.73;;;;;;;;;;5021525;28;20140;-79
2021/12/24 11:13:40;;;;;;;20.83;9.00;;;;;;;;;;5006913;28;20707;-74
2021/12/24 11:16:09;;;;;;;19.73;10.73;;;;;;;;;;5007074;28;20046;-71
2021/12/24 11:18:39;;;;;;;23.75;12.05;;;;;;;;;;5031397;28;20064;-71
2021/12/24 11:21:11;;;;;;;26.10;11.20;;;;;;;;;;5005670;28;20128;-77
2021/12/24 11:23:40;;;;;;;26.52;12.95;;;;;;;;;;5023594;28;20423;-69
2021/12/24 11:26:22;;;;;;;26.23;11.20;;;;;;;;;;5018997;28;20060;-75
2021/12/24 11:28:49;;;;;;;22.70;11.75;;;;;;;;;;5006777;28;20076;-68
2021/12/24 11:31:18;;;;;;;24.02;11.88;;;;;;;;;;5024707;28;20054;-77
2021/12/24 11:33:46;;;;;;;21.98;11.02;;;;;;;;;;5003064;28;20053;-70
2021/12/24 11:36:19;;;;;;;18.20;10.60;;;;;;;;;;5025221;28;20064;-70
2021/12/24 11:38:51;;;;;;;20.35;11.10;;;;;;;;;;5023846;28;20096;-72
2021/12/24 11:41:20;;;;;;;20.15;9.13;;;;;;;;;;4997710;28;20058;-79
2021/12/24 11:43:49;;;;;;;15.75;8.63;;;;;;;;;;4997017;28;20372;-70
2021/12/24 11:46:17;;;;;;;18.48;8.30;;;;;;;;;;5020062;28;20046;-70
2021/12/24 11:48:47;;;;;;;12.80;7.75;;;;;;;;;;4984157;28;20069;-72
2021/12/24 11:51:22;;;;;;;15.07;7.32;;;;;;;;;;5002912;28;20065;-73
2021/12/24 11:53:57;;;;;;;13.55;7.40;;;;;;;;;;5025982;28;20344;-69
2021/12/24 11:56:24;;;;;;;;;;;;;;;;;;5003314;28;20127;-68
2021/12/24 11:58:56;;;;;;;8.95;5.55;;;;;;;;;;5007208;28;19960;-73
2021/12/24 12:01:25;;;;;;;10.70;6.45;;;;;;;;;;5025403;28;20057;-78
2021/12/24 12:03:56;;;;;;;10.00;6.25;;;;;;;;;;5027746;28;20057;-70
2021/12/24 12:06:23;;;;;;;9.18;6.50;;;;;;;;;;5024750;28;20058;-71
2021/12/24 12:08:59;;;;;;;9.63;6.88;;;;;;;;;;5022322;28;20059;-70
2021/12/24 12:11:28;;;;;;;11.77;6.78;;;;;;;;;;5004343;28;20128;-70
2021/12/24 12:14:04;;;;;;;12.20;6.88;;;;;;;;;;5007207;28;20099;-75
2021/12/24 12:16:39;;;;;;;12.95;7.20;;;;;;;;;;5021197;28;20076;-75
2021/12/24 12:19:27;;;;;;;12.48;7.32;;;;;;;;;;5016548;28;20192;-65
2021/12/24 12:25:02;;;;;;;10.73;6.75;;;;;;;;;;5019259;28;20060;-69
2021/12/24 12:27:37;;;;;;;7.93;6.03;;;;;;;;;;5022179;28;20127;-68
2021/12/24 12:30:22;;;;;;;8.65;6.07;;;;;;;;;;5014416;28;20053;-66
2021/12/24 12:32:50;;;;;;;10.80;6.28;;;;;;;;;;5036717;28;20097;-67
2021/12/24 12:35:17;;;;;;;9.23;6.25;;;;;;;;;;5010927;28;20048;-69
2021/12/24 12:37:52;;;;;;;11.38;6.07;;;;;;;;;;5019861;28;20049;-69
2021/12/24 12:40:19;;;;;;;8.85;5.78;;;;;;;;;;5010734;28;20095;-70
2021/12/24 12:42:57;;;;;;;12.25;5.45;;;;;;;;;;5027975;28;20053;-68
2021/12/24 12:45:26;;;;;;;7.72;5.45;;;;;;;;;;5011683;28;20481;-68
2021/12/24 12:47:55;;;;;;;7.65;4.65;;;;;;;;;;5029118;28;20053;-69
2021/12/24 12:50:22;;;;;;;9.60;4.93;;;;;;;;;;4995098;28;20124;-72
2021/12/24 12:52:51;;;;;;;7.78;4.38;;;;;;;;;;5008894;28;20491;-69
2021/12/24 12:55:33;;;;;;;7.18;4.78;;;;;;;;;;5010173;28;20495;-70
2021/12/24 12:58:19;;;;;;;8.35;4.65;;;;;;;;;;5027817;28;20065;-70
2021/12/24 13:01:01;;;;;;;11.52;5.07;;;;;;;;;;5011362;28;20037;-74
2021/12/24 13:03:27;;;;;;;6.80;3.88;;;;;;;;;;5010257;28;20061;-71
2021/12/24 13:06:00;;;;;;;5.70;3.85;;;;;;;;;;5027904;28;20045;-69
2021/12/24 13:08:28;;;;;;;6.47;4.00;;;;;;;;;;5007980;28;20091;-70
2021/12/24 13:11:04;;;;;;;5.60;3.40;;;;;;;;;;4992843;28;20544;-69
2021/12/24 13:13:32;;;;;;;8.50;3.72;;;;;;;;;;5012111;28;20115;-75
2021/12/24 13:15:59;;;;;;;5.25;3.50;;;;;;;;;;5006305;28;20056;-73
2021/12/24 13:18:34;;;;;;;6.43;3.10;;;;;;;;;;5027020;28;20115;-71
2021/12/24 13:23:37;;;;;;;7.05;3.47;;;;;;;;;;5026985;28;20011;-72
2021/12/24 13:26:13;;;;;;;5.93;3.50;;;;;;;;;;5009238;28;20046;-70
2021/12/24 13:28:53;;;;;;;6.70;3.38;;;;;;;;;;5026375;28;20081;-76
2021/12/24 13:31:19;;;;;;;4.90;3.25;;;;;;;;;;5023697;28;20522;-72
2021/12/24 13:33:47;;;;;;;8.68;3.20;;;;;;;;;;5001584;28;20136;-70
2021/12/24 13:36:13;;;;;;;5.85;3.42;;;;;;;;;;5007645;28;20046;-71
2021/12/24 13:38:40;;;;;;;6.07;3.28;;;;;;;;;;5025427;28;20045;-72
2021/12/24 13:41:07;;;;;;;9.23;3.80;;;;;;;;;;5028169;28;20060;-75
2021/12/24 13:43:37;;;;;;;5.07;3.30;;;;;;;;;;5031115;28;20049;-72
2021/12/24 13:46:08;;;;;;;6.50;3.80;;;;;;;;;;5008451;28;20095;-70
2021/12/24 13:56:45;;;;;;;11.80;6.75;;;;;;;;;;5024570;28;20049;-70
2021/12/24 13:59:21;;;;;;;19.10;6.60;;;;;;;;;;5013031;28;20308;-69
2021/12/24 14:01:47;;;;;;;15.82;7.22;;;;;;;;;;5006963;28;20042;-69
2021/12/24 14:04:16;;;;;;;14.00;7.40;;;;;;;;;;5009187;28;20506;-71
2021/12/24 14:06:45;;;;;;;20.00;8.65;;;;;;;;;;5007423;28;20084;-74
2021/12/24 14:09:19;;;;;;;19.73;8.35;;;;;;;;;;5023287;28;20137;-78
2021/12/24 14:11:48;;;;;;;17.83;8.77;;;;;;;;;;5023185;28;20526;-70
2021/12/24 14:14:24;;;;;;;18.65;9.20;;;;;;;;;;5021129;28;20053;-68
2021/12/24 14:19:36;;;;;;;15.45;8.25;;;;;;;;;;5006671;28;20061;-70
2021/12/24 14:22:11;;;;;;;13.18;7.47;;;;;;;;;;4989897;28;20057;-70
2021/12/24 14:24:53;;;;;;;14.27;7.70;;;;;;;;;;5028325;28;20060;-72
2021/12/24 14:27:23;;;;;;;14.32;8.07;;;;;;;;;;5032278;28;20050;-70
2021/12/24 14:29:58;;;;;;;13.13;7.07;;;;;;;;;;5030985;28;20524;-70
2021/12/24 14:32:43;;;;;;;12.35;7.45;;;;;;;;;;5011196;28;20069;-72
2021/12/24 14:35:15;;;;;;;;;;;;;;;;;;5031237;28;20119;-67
2021/12/24 14:37:52;;;;;;;15.05;6.95;;;;;;;;;;5012354;28;19921;-71
2021/12/24 14:40:19;;;;;;;13.05;6.75;;;;;;;;;;5029171;28;20113;-73
2021/12/24 14:42:51;;;;;;;17.25;7.22;;;;;;;;;;5012115;28;20107;-69
2021/12/24 14:45:26;;;;;;;17.35;6.78;;;;;;;;;;5012157;28;20045;-69
2021/12/24 14:48:17;;;;;;;12.90;6.40;;;;;;;;;;5010045;28;20529;-69
2021/12/24 14:51:03;;;;;;;15.45;6.90;;;;;;;;;;5006825;28;20049;-69
2021/12/24 14:53:37;;;;;;;10.77;6.65;;;;;;;;;;5014539;28;20060;-73
2021/12/24 14:56:08;;;;;;;13.15;7.40;;;;;;;;;;5009871;28;20076;-68
2021/12/24 14:58:39;;;;;;;15.43;7.30;;;;;;;;;;5025558;28;20065;-69
2021/12/24 15:01:07;;;;;;;13.35;6.78;;;;;;;;;;5010353;28;20503;-71
2021/12/24 15:03:35;;;;;;;13.27;6.45;;;;;;;;;;4989465;28;20053;-72
2021/12/24 15:06:13;;;;;;;11.13;6.32;;;;;;;;;;4993002;28;20065;-75
2021/12/24 15:08:39;;;;;;;8.23;5.00;;;;;;;;;;4990360;28;20711;-74
2021/12/24 15:11:20;;;;;;;12.88;5.53;;;;;;;;;;5005899;28;20057;-73
2021/12/24 15:13:53;;;;;;;14.75;5.88;;;;;;;;;;5006662;28;20111;-72
2021/12/24 15:16:22;;;;;;;14.27;5.63;;;;;;;;;;4997423;28;20770;-68
2021/12/24 15:18:50;;;;;;;10.60;5.70;;;;;;;;;;5001854;28;20136;-69
2021/12/24 15:21:19;;;;;;;12.57;5.07;;;;;;;;;;5033661;28;20054;-72
2021/12/24 15:23:47;;;;;;;10.18;5.05;;;;;;;;;;4998008;28;20046;-70
2021/12/24 15:26:14;;;;;;;8.63;4.93;;;;;;;;;;5015804;28;20061;-70
2021/12/24 15:28:43;;;;;;;8.27;5.13;;;;;;;;;;5033237;28;20096;-71
2021/12/24 15:31:11;;;;;;;7.60;4.82;;;;;;;;;;5014980;28;20420;-78
2021/12/24 15:33:38;;;;;;;8.60;4.40;;;;;;;;;;5032588;28;20402;-70
2021/12/24 15:36:06;;;;;;;6.18;4.38;;;;;;;;;;5016961;28;20057;-73
2021/12/24 15:38:33;;;;;;;7.13;4.20;;;;;;;;;;5002429;28;20092;-73
2021/12/24 15:40:59;;;;;;;9.00;4.10;;;;;;;;;;5001430;28;20534;-75
2021/12/24 15:43:26;;;;;;;7.40;3.95;;;;;;;;;;5034205;28;20052;-75
2021/12/24 15:45:54;;;;;;;8.60;3.72;;;;;;;;;;5033361;28;20120;-69
2021/12/24 15:48:22;;;;;;;6.88;3.65;;;;;;;;;;5033305;28;20529;-74
2021/12/24 15:50:49;;;;;;;4.97;3.10;;;;;;;;;;5011200;28;20107;-74
2021/12/24 15:53:16;;;;;;;5.07;3.13;;;;;;;;;;5009305;28;20133;-70
2021/12/24 15:55:43;;;;;;;4.70;2.72;;;;;;;;;;5028328;28;20588;-79
2021/12/24 15:58:11;;;;;;;3.70;2.40;;;;;;;;;;5010465;28;20049;-74
2021/12/24 16:00:41;;;;;;;4.45;2.33;;;;;;;;;;5031104;28;20064;-75
2021/12/24 16:03:08;;;;;;;5.38;2.60;;;;;;;;;;5027507;28;20553;-71
2021/12/24 16:05:35;;;;;;;3.78;2.22;;;;;;;;;;5002403;28;20713;-78
2021/12/24 16:08:02;;;;;;;6.15;2.42;;;;;;;;;;4986363;28;20141;-79
2021/12/24 16:10:29;;;;;;;6.00;2.30;;;;;;;;;;5024422;28;20814;-70
2021/12/24 16:13:00;;;;;;;4.85;1.90;;;;;;;;;;5020177;28;20053;-68
2021/12/24 16:15:28;;;;;;;5.85;2.30;;;;;;;;;;5004505;28;20097;-70
2021/12/24 16:17:55;;;;;;;3.30;1.90;;;;;;;;;;5004327;28;20076;-74
2021/12/24 16:20:21;;;;;;;7.03;2.10;;;;;;;;;;4998151;28;20107;-74
2021/12/24 16:22:48;;;;;;;4.65;2.28;;;;;;;;;;5023870;28;20479;-74
2021/12/24 16:25:14;;;;;;;2.70;2.00;;;;;;;;;;5019176;28;20041;-78
2021/12/24 16:27:41;;;;;;;6.82;2.50;;;;;;;;;;5005133;28;20057;-70
2021/12/24 16:30:14;;;;;;;4.03;1.80;;;;;;;;;;5010203;28;20399;-67
2021/12/24 16:32:41;;;;;;;5.03;2.00;;;;;;;;;;5025649;28;20042;-68
2021/12/24 16:35:28;;;;;;;5.90;1.90;;;;;;;;;;4993997;28;20081;-70
2021/12/24 16:37:56;;;;;;;2.90;1.90;;;;;;;;;;5000780;28;20057;-73